METAR Data
IDs: Format: Raw Decoded Include TAF

Data at: 1333 UTC 26 Feb 2021

SABE 261300Z 36006KT 310V040 CAVOK 26/18 Q1016 NOSIG